createdAt,value
2018-02-02T00:01:11.577Z,12.60
2018-02-02T00:03:38.955Z,12.03
2018-02-02T00:06:06.353Z,11.97
2018-02-02T00:08:33.764Z,12.37
2018-02-02T00:11:01.169Z,12.40
2018-02-02T00:13:28.551Z,11.87
2018-02-02T00:15:55.956Z,11.80
2018-02-02T00:18:23.317Z,11.93
2018-02-02T00:20:50.738Z,11.50
2018-02-02T00:23:18.165Z,12.03
2018-02-02T00:25:45.537Z,12.27
2018-02-02T00:28:13.032Z,12.10
2018-02-02T00:30:40.535Z,11.43
2018-02-02T00:33:07.988Z,11.20
2018-02-02T00:35:35.406Z,11.00
2018-02-02T00:38:02.785Z,11.23
2018-02-02T00:40:30.146Z,11.37
2018-02-02T00:42:57.546Z,10.83
2018-02-02T00:45:25.131Z,10.90
2018-02-02T00:47:52.542Z,11.33
2018-02-02T00:50:20.007Z,10.43
2018-02-02T00:52:47.422Z,10.73
2018-02-02T00:55:14.822Z,10.03
2018-02-02T00:57:42.245Z,10.87
2018-02-02T01:00:09.584Z,10.70
2018-02-02T01:02:36.950Z,10.80
2018-02-02T01:05:04.391Z,10.63
2018-02-02T01:07:31.811Z,10.40
2018-02-02T01:09:59.178Z,10.40
2018-02-02T01:12:26.553Z,10.20
2018-02-02T01:14:53.946Z,10.13
2018-02-02T01:17:21.359Z,10.17
2018-02-02T01:19:48.764Z,10.07
2018-02-02T01:22:16.126Z,9.57
2018-02-02T01:24:43.525Z,9.50
2018-02-02T01:27:10.964Z,9.97
2018-02-02T01:29:38.336Z,10.07
2018-02-02T01:32:05.760Z,9.83
2018-02-02T01:34:33.110Z,9.93
2018-02-02T01:37:00.480Z,10.27
2018-02-02T01:39:27.881Z,8.90
2018-02-02T01:41:55.384Z,9.73
2018-02-02T01:44:22.770Z,9.97
2018-02-02T01:46:50.218Z,9.37
2018-02-02T01:49:17.639Z,9.00
2018-02-02T01:51:45.047Z,9.13
2018-02-02T01:54:12.476Z,9.30
2018-02-02T01:56:39.832Z,9.30
2018-02-02T01:59:07.202Z,10.13
2018-02-02T02:01:34.599Z,8.67
2018-02-02T02:04:02.063Z,8.90
2018-02-02T02:06:29.460Z,9.50
2018-02-02T02:08:56.876Z,9.53
2018-02-02T02:11:24.265Z,9.37
2018-02-02T02:13:51.626Z,9.40
2018-02-02T02:16:19.030Z,9.97
2018-02-02T02:18:46.465Z,9.40
2018-02-02T02:21:13.875Z,9.30
2018-02-02T02:23:41.404Z,9.13
2018-02-02T02:26:08.770Z,8.90
2018-02-02T02:28:36.136Z,9.23
2018-02-02T02:31:03.524Z,9.47
2018-02-02T02:33:30.914Z,9.00
2018-02-02T02:35:58.271Z,9.10
2018-02-02T02:38:25.771Z,8.73
2018-02-02T02:40:53.258Z,8.50
2018-02-02T02:43:20.625Z,8.57
2018-02-02T02:45:47.994Z,8.97
2018-02-02T02:48:15.414Z,8.60
2018-02-02T02:50:42.775Z,8.10
2018-02-02T02:53:10.167Z,8.30
2018-02-02T02:55:37.510Z,8.90
2018-02-02T02:58:04.898Z,8.23
2018-02-02T03:00:32.300Z,8.60
2018-02-02T03:02:59.771Z,8.13
2018-02-02T03:05:27.122Z,8.87
2018-02-02T03:07:54.498Z,8.70
2018-02-02T03:10:21.951Z,8.27
2018-02-02T03:12:49.355Z,8.23
2018-02-02T03:15:16.735Z,8.33
2018-02-02T03:17:44.131Z,8.73
2018-02-02T03:20:11.582Z,8.77
2018-02-02T03:22:38.925Z,8.70
2018-02-02T03:25:06.317Z,8.13
2018-02-02T03:27:33.654Z,8.60
2018-02-02T03:30:01.045Z,8.70
2018-02-02T03:32:28.446Z,8.03
2018-02-02T03:34:55.854Z,8.47
2018-02-02T03:37:23.243Z,9.03
2018-02-02T03:39:50.582Z,7.90
2018-02-02T03:42:17.972Z,9.37
2018-02-02T03:44:45.327Z,8.43
2018-02-02T03:47:12.738Z,8.03
2018-02-02T03:49:40.077Z,8.33
2018-02-02T03:52:07.453Z,8.50
2018-02-02T03:54:34.851Z,8.93
2018-02-02T03:57:02.201Z,8.43
2018-02-02T03:59:29.621Z,7.93
2018-02-02T04:01:56.973Z,8.67
2018-02-02T04:04:24.393Z,9.03
2018-02-02T04:06:51.758Z,8.07
2018-02-02T04:09:19.147Z,8.50
2018-02-02T04:11:46.523Z,8.10
2018-02-02T04:14:13.867Z,8.50
2018-02-02T04:16:41.258Z,8.50
2018-02-02T04:19:08.614Z,8.03
2018-02-02T04:21:35.955Z,8.43
2018-02-02T04:24:03.350Z,8.80
2018-02-02T04:26:30.729Z,8.60
2018-02-02T04:28:58.118Z,8.83
2018-02-02T04:31:25.570Z,9.37
2018-02-02T04:33:52.968Z,9.57
2018-02-02T04:36:20.379Z,12.43
2018-02-02T04:38:47.789Z,20.03
2018-02-02T04:41:15.224Z,112.77
2018-02-02T04:43:42.698Z,100.27
2018-02-02T04:46:10.131Z,30.97
2018-02-02T04:48:37.572Z,24.77
2018-02-02T04:51:04.965Z,21.33
2018-02-02T04:53:32.448Z,25.27
2018-02-02T04:55:59.862Z,18.53
2018-02-02T04:58:27.336Z,16.20
2018-02-02T05:00:54.787Z,20.70
2018-02-02T05:03:22.169Z,22.03
2018-02-02T05:05:49.551Z,22.37
2018-02-02T05:08:16.996Z,24.90
2018-02-02T05:10:44.430Z,29.43
2018-02-02T05:13:11.827Z,33.40
2018-02-02T05:15:39.271Z,27.00
2018-02-02T05:18:06.694Z,35.43
2018-02-02T05:20:34.117Z,22.83
2018-02-02T05:23:01.516Z,22.97
2018-02-02T05:25:28.906Z,18.87
2018-02-02T05:27:56.381Z,20.03
2018-02-02T05:30:23.751Z,17.10
2018-02-02T05:32:51.141Z,16.87
2018-02-02T05:35:18.560Z,16.53
2018-02-02T05:37:45.980Z,24.53
2018-02-02T05:40:13.378Z,31.10
2018-02-02T05:42:40.814Z,27.03
2018-02-02T05:45:08.261Z,26.73
2018-02-02T05:47:35.644Z,35.93
2018-02-02T05:50:03.085Z,33.20
2018-02-02T05:52:30.482Z,30.63
2018-02-02T05:54:58.007Z,32.57
2018-02-02T05:57:25.407Z,30.73
2018-02-02T05:59:52.875Z,37.37
2018-02-02T06:02:20.281Z,29.43
2018-02-02T06:04:47.689Z,33.97
2018-02-02T06:07:15.206Z,32.27
2018-02-02T06:09:42.638Z,26.90
2018-02-02T06:12:10.070Z,26.60
2018-02-02T06:14:37.474Z,22.57
2018-02-02T06:17:04.922Z,26.63
2018-02-02T06:19:32.308Z,22.03
2018-02-02T06:22:00.096Z,17.30
2018-02-02T06:24:27.552Z,21.53
2018-02-02T06:26:54.977Z,15.50
2018-02-02T06:29:35.602Z,20.10
2018-02-02T06:32:03.173Z,16.70
2018-02-02T06:34:30.817Z,14.30
2018-02-02T06:36:58.375Z,16.40
2018-02-02T06:39:26.689Z,16.83
2018-02-02T06:41:55.264Z,15.37
2018-02-02T06:44:23.397Z,16.03
2018-02-02T06:46:51.067Z,14.47
2018-02-02T06:49:18.752Z,14.53
2018-02-02T06:51:48.196Z,16.27
2018-02-02T06:54:16.950Z,18.87
2018-02-02T06:56:44.557Z,16.43
2018-02-02T06:59:12.347Z,18.10
2018-02-02T07:01:42.965Z,18.50
2018-02-02T07:04:12.545Z,16.30
2018-02-02T07:06:43.053Z,14.37
2018-02-02T07:09:19.287Z,14.17
2018-02-02T07:11:46.990Z,17.93
2018-02-02T07:14:14.686Z,12.13
2018-02-02T07:16:42.660Z,12.87
2018-02-02T07:19:10.302Z,14.80
2018-02-02T07:21:38.059Z,14.07
2018-02-02T07:24:05.642Z,15.97
2018-02-02T07:26:36.520Z,15.33
2018-02-02T07:29:04.214Z,12.87
2018-02-02T07:31:32.687Z,12.20
2018-02-02T07:34:00.365Z,14.47
2018-02-02T07:36:28.428Z,15.20
2018-02-02T07:38:56.364Z,12.77
2018-02-02T07:54:34.747Z,12.27
2018-02-02T07:57:02.525Z,12.10
2018-02-02T07:59:30.338Z,12.23
2018-02-02T08:01:59.559Z,10.77
2018-02-02T08:04:27.455Z,11.13
2018-02-02T08:06:54.884Z,10.80
2018-02-02T08:09:22.328Z,11.07
2018-02-02T08:11:49.854Z,11.50
2018-02-02T08:14:17.506Z,11.23
2018-02-02T08:16:44.974Z,15.83
2018-02-02T08:19:12.392Z,14.37
2018-02-02T08:21:39.896Z,11.43
2018-02-02T08:24:07.266Z,12.93
2018-02-02T08:26:34.798Z,15.70
2018-02-02T08:29:02.254Z,16.67
2018-02-02T08:31:29.897Z,14.00
2018-02-02T08:33:57.335Z,18.27
2018-02-02T08:36:24.832Z,11.97
2018-02-02T08:38:52.292Z,13.33
2018-02-02T08:41:19.683Z,11.53
2018-02-02T08:43:47.133Z,11.17
2018-02-02T08:46:14.542Z,10.93
2018-02-02T08:48:42.085Z,17.47
2018-02-02T08:51:09.636Z,11.00
2018-02-02T08:53:37.127Z,12.40
2018-02-02T08:56:04.624Z,12.37
2018-02-02T08:58:32.067Z,11.17
2018-02-02T09:00:59.667Z,14.70
2018-02-02T09:03:27.135Z,13.60
2018-02-02T09:05:54.752Z,12.33
2018-02-02T09:08:22.298Z,11.83
2018-02-02T09:10:49.689Z,11.43
2018-02-02T09:13:17.181Z,13.17
2018-02-02T09:15:44.709Z,13.63
2018-02-02T09:18:12.176Z,12.53
2018-02-02T09:20:39.692Z,12.27
2018-02-02T09:23:07.244Z,15.90
2018-02-02T09:25:34.722Z,12.73
2018-02-02T09:28:02.415Z,13.53
2018-02-02T09:30:29.929Z,13.13
2018-02-02T09:32:57.497Z,15.20
2018-02-02T09:35:24.960Z,14.13
2018-02-02T09:37:52.358Z,16.10
2018-02-02T09:40:20.181Z,16.73
2018-02-02T09:42:47.670Z,14.00
2018-02-02T09:45:15.203Z,14.23
2018-02-02T09:47:42.638Z,15.63
2018-02-02T09:50:10.035Z,13.83
2018-02-02T09:52:37.490Z,14.03
2018-02-02T09:55:04.949Z,16.20
2018-02-02T09:57:32.357Z,13.83
2018-02-02T09:59:59.839Z,14.13
2018-02-02T10:02:27.298Z,17.83
2018-02-02T10:04:54.763Z,14.47
2018-02-02T10:07:22.167Z,14.40
2018-02-02T10:09:49.541Z,13.67
2018-02-02T10:12:16.952Z,13.80
2018-02-02T10:14:44.386Z,14.10
2018-02-02T10:17:11.780Z,15.03
2018-02-02T10:19:39.251Z,15.27
2018-02-02T10:22:06.642Z,17.67
2018-02-02T10:24:34.284Z,14.47
2018-02-02T10:27:01.964Z,15.60
2018-02-02T10:29:29.388Z,14.60
2018-02-02T10:31:56.846Z,16.67
2018-02-02T10:34:24.663Z,15.27
2018-02-02T10:36:52.164Z,15.63
2018-02-02T10:39:19.627Z,17.73
2018-02-02T10:41:47.068Z,15.03
2018-02-02T10:44:14.500Z,16.97
2018-02-02T10:46:41.915Z,15.20
2018-02-02T10:49:09.366Z,15.70
2018-02-02T10:51:36.814Z,16.57
2018-02-02T10:54:04.290Z,20.03
2018-02-02T10:56:31.710Z,17.37
2018-02-02T10:58:59.188Z,15.50
2018-02-02T11:01:26.652Z,17.87
2018-02-02T11:03:54.121Z,15.67
2018-02-02T11:06:21.623Z,17.43
2018-02-02T11:08:49.195Z,15.77
2018-02-02T11:11:16.736Z,15.57
2018-02-02T11:13:44.171Z,13.90
2018-02-02T11:16:11.619Z,15.53
2018-02-02T11:18:39.122Z,17.83
2018-02-02T11:21:06.625Z,14.43
2018-02-02T11:23:34.233Z,14.23
2018-02-02T11:26:04.835Z,15.17
2018-02-02T11:28:32.255Z,12.90
2018-02-02T11:30:59.801Z,12.23
2018-02-02T11:33:27.160Z,14.20
2018-02-02T11:35:54.634Z,13.47
2018-02-02T11:38:22.083Z,12.83
2018-02-02T11:40:49.555Z,13.83
2018-02-02T11:43:18.049Z,16.23
2018-02-02T11:45:45.496Z,12.00
2018-02-02T11:48:12.932Z,11.80
2018-02-02T11:50:40.501Z,12.07
2018-02-02T11:53:07.920Z,15.30
2018-02-02T11:55:35.326Z,17.70
2018-02-02T11:58:02.850Z,13.37
2018-02-02T12:00:30.338Z,13.20
2018-02-02T12:02:57.768Z,17.17
2018-02-02T12:05:25.192Z,17.17
2018-02-02T12:07:52.675Z,13.23
2018-02-02T12:10:20.108Z,11.17
2018-02-02T12:12:47.621Z,13.60
2018-02-02T12:15:15.084Z,12.73
2018-02-02T12:17:42.567Z,10.23
2018-02-02T12:20:10.026Z,10.20
2018-02-02T12:22:41.480Z,10.63
2018-02-02T12:25:08.873Z,9.73
2018-02-02T12:27:36.348Z,10.70
2018-02-02T12:30:03.775Z,10.83
2018-02-02T12:32:31.215Z,9.67
2018-02-02T12:34:58.594Z,8.10
2018-02-02T12:37:26.037Z,9.70
2018-02-02T12:39:53.435Z,7.43
2018-02-02T12:42:20.833Z,7.80
2018-02-02T12:44:48.252Z,8.40
2018-02-02T12:47:15.836Z,7.53
2018-02-02T12:49:43.210Z,10.10
2018-02-02T12:52:10.651Z,8.23
2018-02-02T12:54:38.135Z,9.77
2018-02-02T12:57:05.570Z,6.83
2018-02-02T12:59:32.985Z,7.10
2018-02-02T13:02:02.049Z,7.77
2018-02-02T13:04:29.566Z,8.07
2018-02-02T13:06:56.966Z,7.20
2018-02-02T13:09:24.407Z,7.77
2018-02-02T13:11:51.915Z,14.03
2018-02-02T13:14:19.303Z,9.27
2018-02-02T13:16:46.693Z,10.77
2018-02-02T13:19:14.166Z,16.27
2018-02-02T13:21:41.631Z,9.90
2018-02-02T13:24:09.129Z,6.97
2018-02-02T13:26:36.554Z,10.83
2018-02-02T13:29:03.990Z,9.47
2018-02-02T13:31:31.404Z,11.13
2018-02-02T13:33:58.874Z,10.97
2018-02-02T13:36:26.532Z,6.17
2018-02-02T13:38:53.914Z,8.33
2018-02-02T13:41:21.330Z,7.93
2018-02-02T13:43:48.750Z,6.43
2018-02-02T13:46:16.207Z,6.53
2018-02-02T13:48:43.645Z,6.90
2018-02-02T13:51:11.055Z,8.37
2018-02-02T13:53:38.536Z,6.30
2018-02-02T13:56:06.172Z,6.13
2018-02-02T13:58:33.620Z,5.63
2018-02-02T14:01:01.063Z,8.23
2018-02-02T14:03:28.570Z,8.63
2018-02-02T14:05:56.118Z,12.10
2018-02-02T14:08:23.542Z,12.23
2018-02-02T14:10:51.000Z,10.97
2018-02-02T14:13:18.422Z,16.57
2018-02-02T14:15:45.970Z,8.90
2018-02-02T14:18:13.393Z,11.30
2018-02-02T14:20:40.863Z,10.43
2018-02-02T14:23:08.307Z,11.73
2018-02-02T14:25:35.723Z,7.90
2018-02-02T14:28:03.159Z,13.67
2018-02-02T14:30:30.679Z,6.97
2018-02-02T14:32:58.103Z,10.00
2018-02-02T14:35:25.514Z,9.10
2018-02-02T14:37:52.927Z,7.20
2018-02-02T14:40:20.326Z,6.87
2018-02-02T14:42:47.829Z,8.10
2018-02-02T14:45:15.317Z,10.03
2018-02-02T14:47:42.815Z,11.33
2018-02-02T14:50:10.411Z,13.17
2018-02-02T14:52:37.858Z,8.33
2018-02-02T14:55:05.310Z,12.10
2018-02-02T14:57:32.778Z,10.47
2018-02-02T15:00:00.170Z,11.53
2018-02-02T15:02:27.678Z,9.23
2018-02-02T15:04:55.145Z,10.87
2018-02-02T15:07:22.585Z,9.97
2018-02-02T15:09:50.042Z,10.57
2018-02-02T15:12:17.717Z,13.90
2018-02-02T15:14:45.302Z,8.30
2018-02-02T15:17:12.907Z,8.93
2018-02-02T15:19:41.061Z,10.50
2018-02-02T15:22:08.568Z,11.83
2018-02-02T15:24:36.060Z,10.37
2018-02-02T15:27:03.793Z,11.43
2018-02-02T15:29:33.234Z,10.63
2018-02-02T15:32:00.700Z,10.93
2018-02-02T15:34:28.196Z,9.70
2018-02-02T15:36:55.986Z,11.23
2018-02-02T15:39:23.648Z,10.97
2018-02-02T15:41:51.095Z,14.67
2018-02-02T15:44:18.543Z,10.53
2018-02-02T15:46:46.086Z,12.40
2018-02-02T15:49:13.716Z,9.47
2018-02-02T15:51:41.348Z,12.93
2018-02-02T15:54:09.098Z,10.30
2018-02-02T15:56:36.794Z,9.13
2018-02-02T15:59:04.462Z,8.03
2018-02-02T16:01:32.057Z,12.43
2018-02-02T16:03:59.438Z,11.07
2018-02-02T16:06:27.214Z,12.60
2018-02-02T16:08:54.763Z,11.83
2018-02-02T16:11:22.257Z,11.73
2018-02-02T16:13:49.688Z,15.77
2018-02-02T16:16:17.146Z,8.73
2018-02-02T16:18:44.562Z,14.17
2018-02-02T16:21:12.049Z,11.20
2018-02-02T16:23:40.403Z,11.93
2018-02-02T16:26:07.875Z,9.37
2018-02-02T16:28:35.377Z,13.27
2018-02-02T16:31:02.858Z,8.23
2018-02-02T16:33:30.313Z,12.00
2018-02-02T16:35:57.763Z,12.07
2018-02-02T16:38:25.163Z,13.77
2018-02-02T16:40:52.617Z,14.17
2018-02-02T16:43:19.999Z,12.93
2018-02-02T16:45:47.402Z,9.93
2018-02-02T16:48:14.802Z,10.43
2018-02-02T16:50:42.179Z,9.73
2018-02-02T16:53:09.763Z,9.93
2018-02-02T16:55:37.208Z,10.93
2018-02-02T16:58:04.619Z,8.83
2018-02-02T17:00:32.015Z,7.53
2018-02-02T17:02:59.426Z,6.43
2018-02-02T17:05:26.856Z,10.37
2018-02-02T17:07:54.296Z,9.40
2018-02-02T17:10:21.700Z,6.27
2018-02-02T17:12:51.005Z,7.80
2018-02-02T17:15:19.046Z,9.33
2018-02-02T17:17:46.584Z,10.30
2018-02-02T17:20:13.988Z,7.77
2018-02-02T17:22:41.404Z,14.63
2018-02-02T17:25:08.853Z,15.73
2018-02-02T17:27:36.288Z,12.50
2018-02-02T17:30:03.725Z,19.67
2018-02-02T17:32:31.229Z,10.50
2018-02-02T17:34:58.670Z,10.03
2018-02-02T17:37:26.066Z,10.10
2018-02-02T17:39:53.504Z,11.87
2018-02-02T17:42:20.883Z,6.80
2018-02-02T17:44:48.284Z,6.43
2018-02-02T17:47:15.697Z,8.53
2018-02-02T17:49:43.154Z,10.43
2018-02-02T17:52:10.556Z,7.23
2018-02-02T17:54:38.018Z,11.67
2018-02-02T17:57:05.408Z,7.93
2018-02-02T17:59:32.812Z,4.53
2018-02-02T18:02:00.322Z,5.90
2018-02-02T18:04:27.709Z,7.33
2018-02-02T18:06:55.132Z,6.90
2018-02-02T18:09:22.521Z,6.93
2018-02-02T18:11:49.903Z,3.87
2018-02-02T18:14:17.361Z,4.87
2018-02-02T18:16:44.869Z,4.47
2018-02-02T18:19:12.287Z,5.43
2018-02-02T18:21:39.730Z,5.90
2018-02-02T18:24:07.182Z,3.03
2018-02-02T18:26:34.669Z,6.13
2018-02-02T18:29:02.075Z,6.13
2018-02-02T18:31:29.480Z,4.53
2018-02-02T18:33:56.990Z,5.20
2018-02-02T18:36:24.415Z,4.67
2018-02-02T18:38:51.854Z,4.27
2018-02-02T18:41:19.326Z,5.40
2018-02-02T18:43:46.748Z,4.50
2018-02-02T18:46:14.186Z,4.63
2018-02-02T18:48:41.610Z,3.17
2018-02-02T18:51:09.042Z,3.43
2018-02-02T18:53:36.476Z,4.77
2018-02-02T18:56:03.945Z,5.87
2018-02-02T18:58:31.383Z,3.30
2018-02-02T19:00:58.812Z,3.77
2018-02-02T19:03:26.252Z,3.87
2018-02-02T19:05:53.687Z,3.00
2018-02-02T19:08:21.126Z,2.97
2018-02-02T19:10:48.578Z,2.70
2018-02-02T19:13:15.985Z,2.53
2018-02-02T19:15:43.429Z,4.57
2018-02-02T19:18:10.849Z,3.50
2018-02-02T19:20:38.303Z,3.23
2018-02-02T19:23:05.707Z,4.27
2018-02-02T19:25:33.135Z,2.63
2018-02-02T19:28:00.525Z,2.70
2018-02-02T19:30:27.970Z,3.27
2018-02-02T19:32:55.384Z,2.67
2018-02-02T19:35:23.479Z,3.30
2018-02-02T19:37:50.897Z,2.40
2018-02-02T19:40:18.290Z,2.43
2018-02-02T19:42:45.756Z,2.73
2018-02-02T19:45:13.165Z,3.37
2018-02-02T19:47:40.917Z,2.20
2018-02-02T19:50:08.314Z,3.33
2018-02-02T19:52:35.758Z,2.40
2018-02-02T19:55:03.172Z,2.93
2018-02-02T19:57:30.646Z,2.37
2018-02-02T19:59:58.097Z,2.40
2018-02-02T20:02:25.550Z,2.37
2018-02-02T20:04:53.021Z,3.00
2018-02-02T20:07:20.430Z,2.20
2018-02-02T20:09:47.826Z,2.30
2018-02-02T20:12:15.282Z,2.43
2018-02-02T20:14:42.693Z,2.50
2018-02-02T20:17:10.157Z,2.20
2018-02-02T20:19:37.582Z,2.40
2018-02-02T20:22:05.033Z,2.17
2018-02-02T20:24:32.445Z,3.30
2018-02-02T20:26:59.897Z,3.50
2018-02-02T20:29:27.474Z,2.30
2018-02-02T20:31:54.885Z,2.40
2018-02-02T20:34:22.273Z,2.83
2018-02-02T20:36:49.671Z,2.10
2018-02-02T20:39:17.078Z,2.03
2018-02-02T20:41:44.493Z,2.23
2018-02-02T20:44:11.958Z,1.93
2018-02-02T20:46:39.410Z,2.07
2018-02-02T20:49:06.822Z,3.10
2018-02-02T20:51:34.215Z,2.23
2018-02-02T20:54:01.685Z,2.07
2018-02-02T20:56:29.094Z,2.27
2018-02-02T20:58:56.514Z,1.63
2018-02-02T21:01:23.984Z,2.07
2018-02-02T21:03:51.930Z,2.43
2018-02-02T21:08:52.813Z,2.27
2018-02-02T21:11:20.313Z,1.70
2018-02-02T21:13:47.828Z,2.17
2018-02-02T21:16:15.277Z,2.07
2018-02-02T21:18:42.728Z,2.10
2018-02-02T21:21:10.166Z,1.90
2018-02-02T21:23:37.579Z,2.33
2018-02-02T21:26:04.985Z,2.00
2018-02-02T21:28:32.425Z,2.27
2018-02-02T21:30:59.889Z,1.67
2018-02-02T21:33:27.307Z,2.47
2018-02-02T21:35:54.721Z,2.40
2018-02-02T21:38:22.182Z,1.90
2018-02-02T21:40:49.623Z,2.67
2018-02-02T21:43:17.037Z,1.57
2018-02-02T21:45:44.437Z,2.60
2018-02-02T21:48:11.866Z,1.93
2018-02-02T21:50:39.253Z,1.90
2018-02-02T21:53:06.671Z,2.10
2018-02-02T21:55:34.049Z,1.90
2018-02-02T21:58:01.465Z,2.13
2018-02-02T22:00:28.880Z,1.93
2018-02-02T22:02:56.274Z,2.10
2018-02-02T22:05:23.705Z,1.73
2018-02-02T22:07:51.135Z,3.87
2018-02-02T22:10:18.545Z,1.70
2018-02-02T22:12:45.926Z,2.00
2018-02-02T22:15:13.364Z,1.80
2018-02-02T22:17:40.714Z,2.10
2018-02-02T22:20:08.046Z,2.10
2018-02-02T22:22:35.440Z,2.17
2018-02-02T22:25:02.818Z,1.97
2018-02-02T22:27:30.206Z,2.30
2018-02-02T22:29:57.558Z,2.10
2018-02-02T22:32:24.936Z,2.00
2018-02-02T22:34:52.286Z,2.00
2018-02-02T22:37:19.665Z,3.20
2018-02-02T22:39:47.083Z,2.20
2018-02-02T22:42:14.422Z,2.20
2018-02-02T22:44:41.758Z,2.60
2018-02-02T22:47:09.158Z,2.40
2018-02-02T22:49:36.537Z,2.23
2018-02-02T22:52:03.942Z,3.27
2018-02-02T22:54:31.296Z,2.30
2018-02-02T22:56:58.677Z,2.20
2018-02-02T22:59:26.015Z,2.07
2018-02-02T23:01:53.457Z,2.20
2018-02-02T23:04:20.842Z,2.50
2018-02-02T23:06:48.263Z,2.40
2018-02-02T23:09:15.658Z,2.53
2018-02-02T23:11:42.998Z,2.40
2018-02-02T23:14:10.371Z,2.37
2018-02-02T23:16:37.732Z,2.87
2018-02-02T23:19:05.156Z,2.50
2018-02-02T23:21:32.519Z,2.63
2018-02-02T23:23:59.875Z,2.70
2018-02-02T23:26:27.266Z,2.63
2018-02-02T23:28:54.602Z,2.73
2018-02-02T23:31:21.959Z,2.60
2018-02-02T23:33:49.345Z,2.50
2018-02-02T23:36:16.706Z,3.10
2018-02-02T23:38:44.054Z,2.67
2018-02-02T23:41:11.511Z,3.00
2018-02-02T23:43:38.875Z,2.60
2018-02-02T23:46:06.245Z,2.73
2018-02-02T23:48:33.646Z,3.27
2018-02-02T23:51:01.009Z,2.80
2018-02-02T23:53:28.414Z,3.20
2018-02-02T23:55:55.818Z,3.17
2018-02-02T23:58:23.194Z,2.90
